sensor_id;sensor_type;location;lat;lon;timestamp;P1;durP1;ratioP1;P2;durP2;ratioP2
70975;SDS011;58635;51.198;6.010;2023-08-12T00:00:53;15.30;;;12.65;;
70975;SDS011;58635;51.198;6.010;2023-08-12T00:03:19;14.85;;;12.65;;
70975;SDS011;58635;51.198;6.010;2023-08-12T00:05:46;13.93;;;12.32;;
70975;SDS011;58635;51.198;6.010;2023-08-12T00:08:12;16.52;;;13.15;;
70975;SDS011;58635;51.198;6.010;2023-08-12T00:10:38;14.95;;;13.25;;
70975;SDS011;58635;51.198;6.010;2023-08-12T00:13:05;14.88;;;12.80;;
70975;SDS011;58635;51.198;6.010;2023-08-12T00:15:31;15.00;;;12.52;;
70975;SDS011;58635;51.198;6.010;2023-08-12T00:17:58;15.02;;;13.38;;
70975;SDS011;58635;51.198;6.010;2023-08-12T00:20:25;18.42;;;14.95;;
70975;SDS011;58635;51.198;6.010;2023-08-12T00:22:51;15.43;;;13.70;;
70975;SDS011;58635;51.198;6.010;2023-08-12T00:25:17;16.48;;;14.77;;
70975;SDS011;58635;51.198;6.010;2023-08-12T00:27:44;17.20;;;14.48;;
70975;SDS011;58635;51.198;6.010;2023-08-12T00:30:10;19.33;;;15.85;;
70975;SDS011;58635;51.198;6.010;2023-08-12T00:32:37;19.98;;;15.10;;
70975;SDS011;58635;51.198;6.010;2023-08-12T00:35:04;15.05;;;13.20;;
70975;SDS011;58635;51.198;6.010;2023-08-12T00:37:31;16.63;;;14.85;;
70975;SDS011;58635;51.198;6.010;2023-08-12T00:39:57;15.35;;;12.88;;
70975;SDS011;58635;51.198;6.010;2023-08-12T00:42:24;14.70;;;12.45;;
70975;SDS011;58635;51.198;6.010;2023-08-12T00:44:50;15.82;;;13.32;;
70975;SDS011;58635;51.198;6.010;2023-08-12T00:47:17;17.77;;;13.93;;
70975;SDS011;58635;51.198;6.010;2023-08-12T00:49:43;14.35;;;12.45;;
70975;SDS011;58635;51.198;6.010;2023-08-12T00:52:14;15.25;;;13.07;;
70975;SDS011;58635;51.198;6.010;2023-08-12T00:54:41;13.85;;;12.40;;
70975;SDS011;58635;51.198;6.010;2023-08-12T00:57:08;13.77;;;12.35;;
70975;SDS011;58635;51.198;6.010;2023-08-12T00:59:35;17.25;;;12.95;;
70975;SDS011;58635;51.198;6.010;2023-08-12T01:02:05;13.45;;;12.15;;
70975;SDS011;58635;51.198;6.010;2023-08-12T01:04:32;14.82;;;12.15;;
70975;SDS011;58635;51.198;6.010;2023-08-12T01:06:58;14.60;;;13.10;;
70975;SDS011;58635;51.198;6.010;2023-08-12T01:09:25;14.10;;;12.10;;
70975;SDS011;58635;51.198;6.010;2023-08-12T01:15:15;14.32;;;11.38;;
70975;SDS011;58635;51.198;6.010;2023-08-12T01:17:35;14.13;;;11.50;;
70975;SDS011;58635;51.198;6.010;2023-08-12T01:20:05;14.45;;;11.70;;
70975;SDS011;58635;51.198;6.010;2023-08-12T01:22:38;13.02;;;11.02;;
70975;SDS011;58635;51.198;6.010;2023-08-12T01:25:07;14.27;;;11.70;;
70975;SDS011;58635;51.198;6.010;2023-08-12T01:27:34;12.32;;;9.70;;
70975;SDS011;58635;51.198;6.010;2023-08-12T01:30:02;11.48;;;9.93;;
70975;SDS011;58635;51.198;6.010;2023-08-12T01:32:35;11.95;;;10.00;;
70975;SDS011;58635;51.198;6.010;2023-08-12T01:35:14;13.02;;;9.48;;
70975;SDS011;58635;51.198;6.010;2023-08-12T01:37:45;13.38;;;9.73;;
70975;SDS011;58635;51.198;6.010;2023-08-12T01:40:14;11.70;;;8.75;;
70975;SDS011;58635;51.198;6.010;2023-08-12T01:42:42;9.93;;;8.18;;
70975;SDS011;58635;51.198;6.010;2023-08-12T01:45:10;12.20;;;8.30;;
70975;SDS011;58635;51.198;6.010;2023-08-12T01:47:37;12.32;;;8.15;;
70975;SDS011;58635;51.198;6.010;2023-08-12T01:50:03;11.13;;;8.25;;
70975;SDS011;58635;51.198;6.010;2023-08-12T01:52:30;9.68;;;7.70;;
70975;SDS011;58635;51.198;6.010;2023-08-12T01:54:57;11.63;;;8.38;;
70975;SDS011;58635;51.198;6.010;2023-08-12T01:57:23;10.60;;;8.15;;
70975;SDS011;58635;51.198;6.010;2023-08-12T01:59:50;11.48;;;7.80;;
70975;SDS011;58635;51.198;6.010;2023-08-12T02:02:17;11.70;;;8.27;;
70975;SDS011;58635;51.198;6.010;2023-08-12T02:04:44;11.77;;;8.70;;
70975;SDS011;58635;51.198;6.010;2023-08-12T02:07:10;11.00;;;7.50;;
70975;SDS011;58635;51.198;6.010;2023-08-12T02:09:36;11.13;;;7.43;;
70975;SDS011;58635;51.198;6.010;2023-08-12T02:12:03;12.05;;;8.23;;
70975;SDS011;58635;51.198;6.010;2023-08-12T02:14:30;11.75;;;7.93;;
70975;SDS011;58635;51.198;6.010;2023-08-12T02:16:56;10.55;;;8.27;;
70975;SDS011;58635;51.198;6.010;2023-08-12T02:19:22;10.13;;;8.43;;
70975;SDS011;58635;51.198;6.010;2023-08-12T02:21:49;9.82;;;8.55;;
70975;SDS011;58635;51.198;6.010;2023-08-12T02:24:15;10.93;;;9.73;;
70975;SDS011;58635;51.198;6.010;2023-08-12T02:26:41;13.05;;;9.70;;
70975;SDS011;58635;51.198;6.010;2023-08-12T02:29:08;12.45;;;8.43;;
70975;SDS011;58635;51.198;6.010;2023-08-12T02:31:34;11.15;;;8.75;;
70975;SDS011;58635;51.198;6.010;2023-08-12T02:34:00;11.57;;;9.05;;
70975;SDS011;58635;51.198;6.010;2023-08-12T02:36:27;11.75;;;8.55;;
70975;SDS011;58635;51.198;6.010;2023-08-12T02:38:53;14.07;;;9.05;;
70975;SDS011;58635;51.198;6.010;2023-08-12T02:41:19;12.13;;;10.15;;
70975;SDS011;58635;51.198;6.010;2023-08-12T02:43:46;12.82;;;9.25;;
70975;SDS011;58635;51.198;6.010;2023-08-12T02:46:12;10.43;;;8.63;;
70975;SDS011;58635;51.198;6.010;2023-08-12T02:48:42;11.73;;;8.70;;
70975;SDS011;58635;51.198;6.010;2023-08-12T02:51:08;13.00;;;8.95;;
70975;SDS011;58635;51.198;6.010;2023-08-12T02:53:36;12.13;;;9.55;;
70975;SDS011;58635;51.198;6.010;2023-08-12T02:56:02;12.57;;;10.65;;
70975;SDS011;58635;51.198;6.010;2023-08-12T02:58:28;12.35;;;10.30;;
70975;SDS011;58635;51.198;6.010;2023-08-12T03:00:55;15.57;;;11.20;;
70975;SDS011;58635;51.198;6.010;2023-08-12T03:03:21;14.15;;;11.90;;
70975;SDS011;58635;51.198;6.010;2023-08-12T03:05:48;13.70;;;11.65;;
70975;SDS011;58635;51.198;6.010;2023-08-12T03:08:15;13.55;;;11.32;;
70975;SDS011;58635;51.198;6.010;2023-08-12T03:10:41;14.15;;;12.02;;
70975;SDS011;58635;51.198;6.010;2023-08-12T03:13:08;15.35;;;13.48;;
70975;SDS011;58635;51.198;6.010;2023-08-12T03:15:34;14.95;;;13.40;;
70975;SDS011;58635;51.198;6.010;2023-08-12T03:18:04;14.65;;;12.80;;
70975;SDS011;58635;51.198;6.010;2023-08-12T03:20:30;16.77;;;12.88;;
70975;SDS011;58635;51.198;6.010;2023-08-12T03:22:56;16.27;;;14.13;;
70975;SDS011;58635;51.198;6.010;2023-08-12T03:25:23;16.70;;;13.80;;
70975;SDS011;58635;51.198;6.010;2023-08-12T03:27:49;19.05;;;15.82;;
70975;SDS011;58635;51.198;6.010;2023-08-12T03:30:16;22.70;;;18.60;;
70975;SDS011;58635;51.198;6.010;2023-08-12T03:32:42;19.52;;;15.85;;
70975;SDS011;58635;51.198;6.010;2023-08-12T03:35:08;21.63;;;18.42;;
70975;SDS011;58635;51.198;6.010;2023-08-12T03:37:35;19.63;;;16.88;;
70975;SDS011;58635;51.198;6.010;2023-08-12T03:40:01;19.33;;;17.10;;
70975;SDS011;58635;51.198;6.010;2023-08-12T03:42:28;17.55;;;15.18;;
70975;SDS011;58635;51.198;6.010;2023-08-12T03:44:54;20.45;;;16.80;;
70975;SDS011;58635;51.198;6.010;2023-08-12T03:47:21;22.00;;;17.83;;
70975;SDS011;58635;51.198;6.010;2023-08-12T03:49:47;18.65;;;16.75;;
70975;SDS011;58635;51.198;6.010;2023-08-12T03:52:14;19.08;;;17.08;;
70975;SDS011;58635;51.198;6.010;2023-08-12T03:54:40;19.15;;;17.15;;
70975;SDS011;58635;51.198;6.010;2023-08-12T03:57:07;19.70;;;16.98;;
70975;SDS011;58635;51.198;6.010;2023-08-12T03:59:33;18.65;;;15.52;;
70975;SDS011;58635;51.198;6.010;2023-08-12T04:01:59;19.45;;;17.05;;
70975;SDS011;58635;51.198;6.010;2023-08-12T04:04:26;16.52;;;14.73;;
70975;SDS011;58635;51.198;6.010;2023-08-12T04:06:53;20.27;;;17.05;;
70975;SDS011;58635;51.198;6.010;2023-08-12T04:09:19;19.73;;;16.77;;
70975;SDS011;58635;51.198;6.010;2023-08-12T04:11:46;20.27;;;18.17;;
70975;SDS011;58635;51.198;6.010;2023-08-12T04:14:13;20.20;;;16.83;;
70975;SDS011;58635;51.198;6.010;2023-08-12T04:16:40;21.52;;;18.80;;
70975;SDS011;58635;51.198;6.010;2023-08-12T04:19:06;22.23;;;17.65;;
70975;SDS011;58635;51.198;6.010;2023-08-12T04:21:33;18.25;;;15.73;;
70975;SDS011;58635;51.198;6.010;2023-08-12T04:23:59;22.20;;;17.55;;
70975;SDS011;58635;51.198;6.010;2023-08-12T04:26:25;20.65;;;18.45;;
70975;SDS011;58635;51.198;6.010;2023-08-12T04:28:52;20.55;;;17.65;;
70975;SDS011;58635;51.198;6.010;2023-08-12T04:31:18;18.42;;;15.50;;
70975;SDS011;58635;51.198;6.010;2023-08-12T04:33:44;19.83;;;17.15;;
70975;SDS011;58635;51.198;6.010;2023-08-12T04:36:11;17.45;;;15.63;;
70975;SDS011;58635;51.198;6.010;2023-08-12T04:38:37;20.77;;;18.55;;
70975;SDS011;58635;51.198;6.010;2023-08-12T04:41:05;18.67;;;16.70;;
70975;SDS011;58635;51.198;6.010;2023-08-12T04:43:31;19.00;;;16.92;;
70975;SDS011;58635;51.198;6.010;2023-08-12T04:45:58;19.92;;;17.85;;
70975;SDS011;58635;51.198;6.010;2023-08-12T04:48:24;22.17;;;18.35;;
70975;SDS011;58635;51.198;6.010;2023-08-12T04:50:50;19.13;;;16.13;;
70975;SDS011;58635;51.198;6.010;2023-08-12T04:53:17;21.80;;;18.20;;
70975;SDS011;58635;51.198;6.010;2023-08-12T04:55:43;20.23;;;18.08;;
70975;SDS011;58635;51.198;6.010;2023-08-12T04:58:09;18.85;;;16.58;;
70975;SDS011;58635;51.198;6.010;2023-08-12T05:00:36;17.48;;;15.70;;
70975;SDS011;58635;51.198;6.010;2023-08-12T05:03:02;19.38;;;15.20;;
70975;SDS011;58635;51.198;6.010;2023-08-12T05:05:30;14.88;;;13.38;;
70975;SDS011;58635;51.198;6.010;2023-08-12T05:07:56;17.50;;;14.88;;
70975;SDS011;58635;51.198;6.010;2023-08-12T05:10:22;15.60;;;13.90;;
70975;SDS011;58635;51.198;6.010;2023-08-12T05:12:49;16.98;;;15.18;;
70975;SDS011;58635;51.198;6.010;2023-08-12T05:15:16;15.63;;;13.63;;
70975;SDS011;58635;51.198;6.010;2023-08-12T05:17:42;15.55;;;11.90;;
70975;SDS011;58635;51.198;6.010;2023-08-12T05:20:09;15.65;;;11.73;;
70975;SDS011;58635;51.198;6.010;2023-08-12T05:22:35;13.20;;;10.77;;
70975;SDS011;58635;51.198;6.010;2023-08-12T05:25:02;13.88;;;10.65;;
70975;SDS011;58635;51.198;6.010;2023-08-12T05:27:28;13.73;;;11.07;;
70975;SDS011;58635;51.198;6.010;2023-08-12T05:29:55;11.73;;;10.25;;
70975;SDS011;58635;51.198;6.010;2023-08-12T05:32:21;13.45;;;10.77;;
70975;SDS011;58635;51.198;6.010;2023-08-12T05:34:49;12.25;;;10.05;;
70975;SDS011;58635;51.198;6.010;2023-08-12T05:37:18;12.65;;;9.75;;
70975;SDS011;58635;51.198;6.010;2023-08-12T05:39:44;11.98;;;9.15;;
70975;SDS011;58635;51.198;6.010;2023-08-12T05:42:10;13.07;;;9.98;;
70975;SDS011;58635;51.198;6.010;2023-08-12T05:44:37;11.65;;;10.45;;
70975;SDS011;58635;51.198;6.010;2023-08-12T05:47:03;10.15;;;9.05;;
70975;SDS011;58635;51.198;6.010;2023-08-12T05:49:30;12.07;;;7.93;;
70975;SDS011;58635;51.198;6.010;2023-08-12T05:51:56;8.80;;;7.22;;
70975;SDS011;58635;51.198;6.010;2023-08-12T05:54:22;8.38;;;6.47;;
70975;SDS011;58635;51.198;6.010;2023-08-12T05:56:49;7.57;;;5.55;;
70975;SDS011;58635;51.198;6.010;2023-08-12T05:59:15;7.90;;;5.88;;
70975;SDS011;58635;51.198;6.010;2023-08-12T06:01:42;8.65;;;5.45;;
70975;SDS011;58635;51.198;6.010;2023-08-12T06:04:08;6.93;;;4.22;;
70975;SDS011;58635;51.198;6.010;2023-08-12T06:06:34;6.50;;;4.18;;
70975;SDS011;58635;51.198;6.010;2023-08-12T06:09:01;5.35;;;4.03;;
70975;SDS011;58635;51.198;6.010;2023-08-12T06:11:27;6.50;;;3.97;;
70975;SDS011;58635;51.198;6.010;2023-08-12T06:13:54;6.85;;;3.88;;
70975;SDS011;58635;51.198;6.010;2023-08-12T06:16:20;5.38;;;3.80;;
70975;SDS011;58635;51.198;6.010;2023-08-12T06:18:46;4.40;;;3.22;;
70975;SDS011;58635;51.198;6.010;2023-08-12T06:21:13;5.07;;;3.30;;
70975;SDS011;58635;51.198;6.010;2023-08-12T06:23:39;6.40;;;3.05;;
70975;SDS011;58635;51.198;6.010;2023-08-12T06:26:06;4.28;;;3.10;;
70975;SDS011;58635;51.198;6.010;2023-08-12T06:28:32;5.30;;;3.33;;
70975;SDS011;58635;51.198;6.010;2023-08-12T06:30:58;4.65;;;3.25;;
70975;SDS011;58635;51.198;6.010;2023-08-12T06:33:25;5.40;;;3.50;;
70975;SDS011;58635;51.198;6.010;2023-08-12T06:35:51;4.10;;;3.00;;
70975;SDS011;58635;51.198;6.010;2023-08-12T06:38:18;5.35;;;2.88;;
70975;SDS011;58635;51.198;6.010;2023-08-12T06:40:44;6.15;;;3.00;;
70975;SDS011;58635;51.198;6.010;2023-08-12T06:43:11;6.35;;;2.88;;
70975;SDS011;58635;51.198;6.010;2023-08-12T06:45:37;3.70;;;2.63;;
70975;SDS011;58635;51.198;6.010;2023-08-12T06:48:03;5.55;;;2.85;;
70975;SDS011;58635;51.198;6.010;2023-08-12T06:50:30;4.40;;;2.50;;
70975;SDS011;58635;51.198;6.010;2023-08-12T06:52:58;5.20;;;2.67;;
70975;SDS011;58635;51.198;6.010;2023-08-12T06:55:24;5.28;;;2.80;;
70975;SDS011;58635;51.198;6.010;2023-08-12T06:57:50;5.63;;;2.55;;
70975;SDS011;58635;51.198;6.010;2023-08-12T07:00:17;3.92;;;2.25;;
70975;SDS011;58635;51.198;6.010;2023-08-12T07:02:43;4.80;;;2.50;;
70975;SDS011;58635;51.198;6.010;2023-08-12T07:05:09;5.10;;;2.47;;
70975;SDS011;58635;51.198;6.010;2023-08-12T07:07:36;5.53;;;2.70;;
70975;SDS011;58635;51.198;6.010;2023-08-12T07:10:02;4.72;;;2.80;;
70975;SDS011;58635;51.198;6.010;2023-08-12T07:12:30;3.75;;;2.25;;
70975;SDS011;58635;51.198;6.010;2023-08-12T07:14:56;3.40;;;2.30;;
70975;SDS011;58635;51.198;6.010;2023-08-12T07:17:23;4.28;;;2.00;;
70975;SDS011;58635;51.198;6.010;2023-08-12T07:19:49;3.70;;;2.17;;
70975;SDS011;58635;51.198;6.010;2023-08-12T07:22:15;3.85;;;2.08;;
70975;SDS011;58635;51.198;6.010;2023-08-12T07:24:45;4.00;;;2.28;;
70975;SDS011;58635;51.198;6.010;2023-08-12T07:27:11;3.78;;;2.13;;
70975;SDS011;58635;51.198;6.010;2023-08-12T07:29:38;3.80;;;2.40;;
70975;SDS011;58635;51.198;6.010;2023-08-12T07:32:04;3.47;;;1.95;;
70975;SDS011;58635;51.198;6.010;2023-08-12T07:34:34;3.47;;;2.03;;
70975;SDS011;58635;51.198;6.010;2023-08-12T07:37:00;3.80;;;2.08;;
70975;SDS011;58635;51.198;6.010;2023-08-12T07:39:27;3.53;;;2.13;;
70975;SDS011;58635;51.198;6.010;2023-08-12T07:41:53;4.00;;;1.80;;
70975;SDS011;58635;51.198;6.010;2023-08-12T07:44:19;3.45;;;1.80;;
70975;SDS011;58635;51.198;6.010;2023-08-12T07:46:46;4.28;;;1.70;;
70975;SDS011;58635;51.198;6.010;2023-08-12T07:49:12;2.92;;;1.65;;
70975;SDS011;58635;51.198;6.010;2023-08-12T07:51:39;2.50;;;1.65;;
70975;SDS011;58635;51.198;6.010;2023-08-12T07:54:05;2.60;;;1.65;;
70975;SDS011;58635;51.198;6.010;2023-08-12T07:56:32;3.63;;;2.13;;
70975;SDS011;58635;51.198;6.010;2023-08-12T07:58:58;3.75;;;2.00;;
70975;SDS011;58635;51.198;6.010;2023-08-12T08:01:25;2.83;;;1.52;;
70975;SDS011;58635;51.198;6.010;2023-08-12T08:03:51;3.40;;;1.35;;
70975;SDS011;58635;51.198;6.010;2023-08-12T08:06:17;2.65;;;1.40;;
70975;SDS011;58635;51.198;6.010;2023-08-12T08:08:43;3.53;;;2.35;;
70975;SDS011;58635;51.198;6.010;2023-08-12T08:11:10;2.63;;;1.88;;
70975;SDS011;58635;51.198;6.010;2023-08-12T08:13:36;3.10;;;1.67;;
70975;SDS011;58635;51.198;6.010;2023-08-12T08:16:03;2.42;;;1.40;;
70975;SDS011;58635;51.198;6.010;2023-08-12T08:18:29;3.22;;;1.92;;
70975;SDS011;58635;51.198;6.010;2023-08-12T08:20:55;2.72;;;1.55;;
70975;SDS011;58635;51.198;6.010;2023-08-12T08:23:22;3.03;;;1.50;;
70975;SDS011;58635;51.198;6.010;2023-08-12T08:25:48;2.38;;;1.50;;
70975;SDS011;58635;51.198;6.010;2023-08-12T08:28:14;4.20;;;1.52;;
70975;SDS011;58635;51.198;6.010;2023-08-12T08:30:41;2.28;;;1.60;;
70975;SDS011;58635;51.198;6.010;2023-08-12T08:33:08;4.05;;;1.38;;
70975;SDS011;58635;51.198;6.010;2023-08-12T08:35:35;3.88;;;1.50;;
70975;SDS011;58635;51.198;6.010;2023-08-12T08:38:01;2.00;;;1.38;;
70975;SDS011;58635;51.198;6.010;2023-08-12T08:40:27;3.70;;;2.13;;
70975;SDS011;58635;51.198;6.010;2023-08-12T08:42:54;2.50;;;1.60;;
70975;SDS011;58635;51.198;6.010;2023-08-12T08:45:27;3.53;;;1.70;;
70975;SDS011;58635;51.198;6.010;2023-08-12T08:47:57;2.08;;;1.15;;
70975;SDS011;58635;51.198;6.010;2023-08-12T08:50:27;2.65;;;1.50;;
70975;SDS011;58635;51.198;6.010;2023-08-12T08:52:56;3.05;;;1.40;;
70975;SDS011;58635;51.198;6.010;2023-08-12T08:55:23;2.90;;;1.30;;
70975;SDS011;58635;51.198;6.010;2023-08-12T08:57:49;3.13;;;1.33;;
70975;SDS011;58635;51.198;6.010;2023-08-12T09:00:16;3.03;;;1.33;;
70975;SDS011;58635;51.198;6.010;2023-08-12T09:02:44;3.38;;;1.33;;
70975;SDS011;58635;51.198;6.010;2023-08-12T09:05:12;2.47;;;1.30;;
70975;SDS011;58635;51.198;6.010;2023-08-12T09:07:41;3.38;;;1.20;;
70975;SDS011;58635;51.198;6.010;2023-08-12T09:10:10;2.70;;;1.20;;
70975;SDS011;58635;51.198;6.010;2023-08-12T09:12:37;2.80;;;1.20;;
70975;SDS011;58635;51.198;6.010;2023-08-12T09:15:04;2.75;;;1.10;;
70975;SDS011;58635;51.198;6.010;2023-08-12T09:17:32;1.38;;;1.00;;
70975;SDS011;58635;51.198;6.010;2023-08-12T09:19:59;2.25;;;1.13;;
70975;SDS011;58635;51.198;6.010;2023-08-12T09:22:25;1.25;;;1.00;;
70975;SDS011;58635;51.198;6.010;2023-08-12T09:25:01;1.40;;;1.00;;
70975;SDS011;58635;51.198;6.010;2023-08-12T09:27:30;3.33;;;1.67;;
70975;SDS011;58635;51.198;6.010;2023-08-12T09:29:57;2.80;;;1.40;;
70975;SDS011;58635;51.198;6.010;2023-08-12T09:32:24;2.90;;;1.90;;
70975;SDS011;58635;51.198;6.010;2023-08-12T09:34:54;2.42;;;1.15;;
70975;SDS011;58635;51.198;6.010;2023-08-12T09:37:22;2.63;;;1.20;;
70975;SDS011;58635;51.198;6.010;2023-08-12T09:39:50;3.00;;;0.90;;
70975;SDS011;58635;51.198;6.010;2023-08-12T09:42:18;2.28;;;1.10;;
70975;SDS011;58635;51.198;6.010;2023-08-12T09:44:45;2.97;;;1.20;;
70975;SDS011;58635;51.198;6.010;2023-08-12T09:47:12;2.28;;;1.10;;
70975;SDS011;58635;51.198;6.010;2023-08-12T09:49:39;1.85;;;1.08;;
70975;SDS011;58635;51.198;6.010;2023-08-12T09:52:06;1.88;;;0.90;;
70975;SDS011;58635;51.198;6.010;2023-08-12T09:54:34;1.23;;;0.90;;
70975;SDS011;58635;51.198;6.010;2023-08-12T09:57:01;2.20;;;1.00;;
70975;SDS011;58635;51.198;6.010;2023-08-12T09:59:32;2.13;;;1.10;;
70975;SDS011;58635;51.198;6.010;2023-08-12T10:02:01;3.05;;;0.80;;
70975;SDS011;58635;51.198;6.010;2023-08-12T10:04:33;1.75;;;1.10;;
70975;SDS011;58635;51.198;6.010;2023-08-12T10:07:08;0.95;;;0.75;;
70975;SDS011;58635;51.198;6.010;2023-08-12T10:09:36;1.33;;;0.93;;
70975;SDS011;58635;51.198;6.010;2023-08-12T10:12:04;1.63;;;0.77;;
70975;SDS011;58635;51.198;6.010;2023-08-12T10:14:31;2.03;;;1.10;;
70975;SDS011;58635;51.198;6.010;2023-08-12T10:16:58;1.10;;;0.80;;
70975;SDS011;58635;51.198;6.010;2023-08-12T10:19:26;1.15;;;0.70;;
70975;SDS011;58635;51.198;6.010;2023-08-12T10:21:59;0.50;;;0.50;;
70975;SDS011;58635;51.198;6.010;2023-08-12T10:24:27;0.57;;;0.50;;
70975;SDS011;58635;51.198;6.010;2023-08-12T10:26:54;1.25;;;0.52;;
70975;SDS011;58635;51.198;6.010;2023-08-12T10:29:20;2.67;;;0.90;;
70975;SDS011;58635;51.198;6.010;2023-08-12T10:31:50;1.52;;;0.73;;
70975;SDS011;58635;51.198;6.010;2023-08-12T10:34:23;1.02;;;0.63;;
70975;SDS011;58635;51.198;6.010;2023-08-12T10:36:54;1.30;;;0.60;;
70975;SDS011;58635;51.198;6.010;2023-08-12T10:39:24;1.58;;;1.00;;
70975;SDS011;58635;51.198;6.010;2023-08-12T10:41:54;2.67;;;1.20;;
70975;SDS011;58635;51.198;6.010;2023-08-12T10:44:23;2.78;;;1.20;;
70975;SDS011;58635;51.198;6.010;2023-08-12T10:46:53;1.83;;;0.90;;
70975;SDS011;58635;51.198;6.010;2023-08-12T10:49:20;1.40;;;0.98;;
70975;SDS011;58635;51.198;6.010;2023-08-12T10:51:48;1.75;;;1.15;;
70975;SDS011;58635;51.198;6.010;2023-08-12T10:54:22;2.00;;;1.10;;
70975;SDS011;58635;51.198;6.010;2023-08-12T11:05:10;2.67;;;1.67;;
70975;SDS011;58635;51.198;6.010;2023-08-12T11:07:46;3.63;;;1.70;;
70975;SDS011;58635;51.198;6.010;2023-08-12T11:10:24;2.63;;;1.83;;
70975;SDS011;58635;51.198;6.010;2023-08-12T11:15:35;2.80;;;1.90;;
70975;SDS011;58635;51.198;6.010;2023-08-12T11:20:31;4.13;;;3.00;;
70975;SDS011;58635;51.198;6.010;2023-08-12T11:22:58;3.63;;;3.00;;
70975;SDS011;58635;51.198;6.010;2023-08-12T11:25:25;4.30;;;3.17;;
70975;SDS011;58635;51.198;6.010;2023-08-12T11:27:55;4.68;;;3.65;;
70975;SDS011;58635;51.198;6.010;2023-08-12T11:30:22;4.95;;;4.07;;
70975;SDS011;58635;51.198;6.010;2023-08-12T11:32:50;4.80;;;4.30;;
70975;SDS011;58635;51.198;6.010;2023-08-12T11:35:18;4.70;;;4.20;;
70975;SDS011;58635;51.198;6.010;2023-08-12T11:37:46;5.43;;;4.20;;
70975;SDS011;58635;51.198;6.010;2023-08-12T11:40:15;4.43;;;2.95;;
70975;SDS011;58635;51.198;6.010;2023-08-12T11:42:43;4.57;;;3.42;;
70975;SDS011;58635;51.198;6.010;2023-08-12T11:45:11;6.07;;;4.75;;
70975;SDS011;58635;51.198;6.010;2023-08-12T11:47:39;7.82;;;4.10;;
70975;SDS011;58635;51.198;6.010;2023-08-12T11:50:07;11.50;;;4.70;;
70975;SDS011;58635;51.198;6.010;2023-08-12T11:52:38;14.73;;;4.60;;
70975;SDS011;58635;51.198;6.010;2023-08-12T11:55:05;8.60;;;4.43;;
70975;SDS011;58635;51.198;6.010;2023-08-12T11:57:33;8.13;;;4.03;;
70975;SDS011;58635;51.198;6.010;2023-08-12T12:00:04;9.38;;;4.72;;
70975;SDS011;58635;51.198;6.010;2023-08-12T12:03:00;5.60;;;4.53;;
70975;SDS011;58635;51.198;6.010;2023-08-12T12:05:29;5.55;;;4.00;;
70975;SDS011;58635;51.198;6.010;2023-08-12T12:08:01;6.28;;;3.60;;
70975;SDS011;58635;51.198;6.010;2023-08-12T12:10:31;5.07;;;2.85;;
70975;SDS011;58635;51.198;6.010;2023-08-12T12:12:59;3.40;;;2.28;;
70975;SDS011;58635;51.198;6.010;2023-08-12T12:15:26;5.15;;;2.55;;
70975;SDS011;58635;51.198;6.010;2023-08-12T12:17:52;7.35;;;2.97;;
70975;SDS011;58635;51.198;6.010;2023-08-12T12:20:19;4.47;;;3.00;;
70975;SDS011;58635;51.198;6.010;2023-08-12T12:22:47;5.07;;;2.80;;
70975;SDS011;58635;51.198;6.010;2023-08-12T12:25:14;3.42;;;2.40;;
70975;SDS011;58635;51.198;6.010;2023-08-12T12:27:42;3.83;;;2.28;;
70975;SDS011;58635;51.198;6.010;2023-08-12T12:30:11;10.18;;;4.20;;
70975;SDS011;58635;51.198;6.010;2023-08-12T12:32:39;6.00;;;3.20;;
70975;SDS011;58635;51.198;6.010;2023-08-12T12:35:06;4.93;;;3.25;;
70975;SDS011;58635;51.198;6.010;2023-08-12T12:37:36;4.57;;;3.25;;
70975;SDS011;58635;51.198;6.010;2023-08-12T12:40:02;6.00;;;3.63;;
70975;SDS011;58635;51.198;6.010;2023-08-12T12:42:30;4.18;;;3.15;;
70975;SDS011;58635;51.198;6.010;2023-08-12T12:44:56;6.53;;;3.08;;
70975;SDS011;58635;51.198;6.010;2023-08-12T12:47:23;5.05;;;3.40;;
70975;SDS011;58635;51.198;6.010;2023-08-12T12:49:49;5.28;;;3.42;;
70975;SDS011;58635;51.198;6.010;2023-08-12T12:52:15;4.80;;;3.20;;
70975;SDS011;58635;51.198;6.010;2023-08-12T12:54:42;5.10;;;3.08;;
70975;SDS011;58635;51.198;6.010;2023-08-12T12:57:08;4.38;;;3.00;;
70975;SDS011;58635;51.198;6.010;2023-08-12T12:59:35;4.03;;;3.00;;
70975;SDS011;58635;51.198;6.010;2023-08-12T13:02:01;4.57;;;3.00;;
70975;SDS011;58635;51.198;6.010;2023-08-12T13:04:28;3.85;;;3.00;;
70975;SDS011;58635;51.198;6.010;2023-08-12T13:06:54;3.70;;;2.55;;
70975;SDS011;58635;51.198;6.010;2023-08-12T13:09:21;6.60;;;3.05;;
70975;SDS011;58635;51.198;6.010;2023-08-12T13:11:47;3.67;;;2.80;;
70975;SDS011;58635;51.198;6.010;2023-08-12T13:14:13;4.70;;;2.65;;
70975;SDS011;58635;51.198;6.010;2023-08-12T13:16:40;5.50;;;2.72;;
70975;SDS011;58635;51.198;6.010;2023-08-12T13:19:06;3.58;;;2.20;;
70975;SDS011;58635;51.198;6.010;2023-08-12T13:21:33;4.15;;;1.95;;
70975;SDS011;58635;51.198;6.010;2023-08-12T13:23:59;3.65;;;2.28;;
70975;SDS011;58635;51.198;6.010;2023-08-12T13:26:27;3.88;;;2.70;;
70975;SDS011;58635;51.198;6.010;2023-08-12T13:28:53;5.05;;;2.97;;
70975;SDS011;58635;51.198;6.010;2023-08-12T13:31:20;5.18;;;3.10;;
70975;SDS011;58635;51.198;6.010;2023-08-12T13:33:46;5.95;;;4.05;;
70975;SDS011;58635;51.198;6.010;2023-08-12T13:36:13;4.53;;;3.00;;
70975;SDS011;58635;51.198;6.010;2023-08-12T13:38:40;4.72;;;2.95;;
70975;SDS011;58635;51.198;6.010;2023-08-12T13:41:06;4.05;;;2.97;;
70975;SDS011;58635;51.198;6.010;2023-08-12T13:43:32;4.53;;;2.70;;
70975;SDS011;58635;51.198;6.010;2023-08-12T13:46:00;5.82;;;2.55;;
70975;SDS011;58635;51.198;6.010;2023-08-12T13:48:27;5.28;;;2.70;;
70975;SDS011;58635;51.198;6.010;2023-08-12T13:50:53;4.80;;;2.40;;
70975;SDS011;58635;51.198;6.010;2023-08-12T13:53:21;3.90;;;2.20;;
70975;SDS011;58635;51.198;6.010;2023-08-12T13:55:47;3.60;;;2.40;;
70975;SDS011;58635;51.198;6.010;2023-08-12T13:58:13;3.80;;;2.10;;
70975;SDS011;58635;51.198;6.010;2023-08-12T14:00:40;4.32;;;2.15;;
70975;SDS011;58635;51.198;6.010;2023-08-12T14:03:06;5.38;;;2.60;;
70975;SDS011;58635;51.198;6.010;2023-08-12T14:05:32;6.18;;;2.60;;
70975;SDS011;58635;51.198;6.010;2023-08-12T14:07:59;6.00;;;2.58;;
70975;SDS011;58635;51.198;6.010;2023-08-12T14:10:25;5.25;;;2.35;;
70975;SDS011;58635;51.198;6.010;2023-08-12T14:12:51;4.30;;;2.40;;
70975;SDS011;58635;51.198;6.010;2023-08-12T14:15:18;5.80;;;2.83;;
70975;SDS011;58635;51.198;6.010;2023-08-12T14:17:45;4.43;;;2.30;;
70975;SDS011;58635;51.198;6.010;2023-08-12T14:20:11;4.60;;;2.70;;
70975;SDS011;58635;51.198;6.010;2023-08-12T14:22:38;6.40;;;2.63;;
70975;SDS011;58635;51.198;6.010;2023-08-12T14:25:04;5.50;;;2.35;;
70975;SDS011;58635;51.198;6.010;2023-08-12T14:27:31;9.35;;;2.40;;
70975;SDS011;58635;51.198;6.010;2023-08-12T14:29:57;5.85;;;2.60;;
70975;SDS011;58635;51.198;6.010;2023-08-12T14:32:24;5.18;;;2.10;;
70975;SDS011;58635;51.198;6.010;2023-08-12T14:34:50;4.45;;;2.28;;
70975;SDS011;58635;51.198;6.010;2023-08-12T14:37:19;5.72;;;2.30;;
70975;SDS011;58635;51.198;6.010;2023-08-12T14:39:46;8.18;;;3.60;;
70975;SDS011;58635;51.198;6.010;2023-08-12T14:42:13;8.18;;;4.10;;
70975;SDS011;58635;51.198;6.010;2023-08-12T14:44:39;5.13;;;2.22;;
70975;SDS011;58635;51.198;6.010;2023-08-12T14:47:06;9.98;;;3.35;;
70975;SDS011;58635;51.198;6.010;2023-08-12T14:49:32;5.78;;;2.13;;
70975;SDS011;58635;51.198;6.010;2023-08-12T14:51:59;4.95;;;2.30;;
70975;SDS011;58635;51.198;6.010;2023-08-12T14:54:25;4.43;;;2.13;;